Time;durP1;ratioP1;P1;durP2;ratioP2;P2;SDS_P1;SDS_P2;PMS_P1;PMS_P2;Temp;Humidity;BMP_temperature;BMP_pressure;BME280_temperature;BME280_humidity;BME280_pressure;Samples;Min_cycle;Max_cycle;Signal;HPM_P1;HPM_P2
2020/12/04 00:00:52;;;;;;;21.03;11.07;;;;;;;;;;3568519;40;20068;-91
2020/12/04 00:03:19;;;;;;;21.07;12.00;;;;;;;;;;3560905;40;20084;-92
2020/12/04 00:05:45;;;;;;;20.47;11.47;;;;;;;;;;3562423;32;20096;-91
2020/12/04 00:08:11;;;;;;;20.00;11.07;;;;;;;;;;3569149;40;20156;-90
2020/12/04 00:10:37;;;;;;;19.37;10.70;;;;;;;;;;3560013;40;20084;-90
2020/12/04 00:13:03;;;;;;;19.17;10.83;;;;;;;;;;3568487;40;20765;-91
2020/12/04 00:15:32;;;;;;;19.77;11.30;;;;;;;;;;3571140;32;20089;-90
2020/12/04 00:17:58;;;;;;;23.07;12.23;;;;;;;;;;3569165;40;20127;-88
2020/12/04 00:20:24;;;;;;;20.87;12.10;;;;;;;;;;3576990;40;20111;-90
2020/12/04 00:22:50;;;;;;;22.37;11.80;;;;;;;;;;3578310;40;20072;-89
2020/12/04 00:25:16;;;;;;;21.33;11.10;;;;;;;;;;3578239;40;20076;-89
2020/12/04 00:27:42;;;;;;;20.97;11.40;;;;;;;;;;3578226;40;20093;-91
2020/12/04 00:30:08;;;;;;;22.43;11.63;;;;;;;;;;3578430;40;20075;-91
2020/12/04 00:32:34;;;;;;;21.73;11.20;;;;;;;;;;3570061;40;20091;-90
2020/12/04 00:35:00;;;;;;;19.73;11.50;;;;;;;;;;3575608;32;20748;-90
2020/12/04 00:37:26;;;;;;;23.23;11.77;;;;;;;;;;3570156;40;20072;-91
2020/12/04 00:39:52;;;;;;;23.07;12.20;;;;;;;;;;3578163;40;20120;-91
2020/12/04 00:42:18;;;;;;;23.53;12.30;;;;;;;;;;3578327;40;20133;-90
2020/12/04 00:44:44;;;;;;;22.27;12.17;;;;;;;;;;3570827;40;20076;-90
2020/12/04 00:47:10;;;;;;;21.00;12.50;;;;;;;;;;3569980;40;20095;-90
2020/12/04 00:49:36;;;;;;;25.77;13.17;;;;;;;;;;3578224;40;20189;-90
2020/12/04 00:52:03;;;;;;;23.53;12.87;;;;;;;;;;3574331;40;20147;-90
2020/12/04 00:54:28;;;;;;;20.20;11.10;;;;;;;;;;3578005;40;20068;-89
2020/12/04 00:56:55;;;;;;;22.80;12.40;;;;;;;;;;3578119;40;20095;-92
2020/12/04 00:59:21;;;;;;;21.33;12.00;;;;;;;;;;3585922;32;20084;-90
2020/12/04 01:01:47;;;;;;;22.27;12.83;;;;;;;;;;3570211;40;20088;-90
2020/12/04 01:04:13;;;;;;;22.83;12.27;;;;;;;;;;3568644;40;20077;-89
2020/12/04 01:06:39;;;;;;;23.20;11.93;;;;;;;;;;3559930;40;20136;-90
2020/12/04 01:09:05;;;;;;;23.20;12.23;;;;;;;;;;3559935;32;20144;-89
2020/12/04 01:11:32;;;;;;;21.47;11.93;;;;;;;;;;3577913;40;20092;-89
2020/12/04 01:13:58;;;;;;;24.10;12.47;;;;;;;;;;3577967;40;20080;-91
2020/12/04 01:16:24;;;;;;;21.63;11.77;;;;;;;;;;3578211;40;20084;-90
2020/12/04 01:18:50;;;;;;;20.80;11.80;;;;;;;;;;3574442;32;20092;-90
2020/12/04 01:21:16;;;;;;;24.37;11.93;;;;;;;;;;3580600;32;20098;-90
2020/12/04 01:23:42;;;;;;;23.80;12.37;;;;;;;;;;3581036;32;20107;-90
2020/12/04 01:26:09;;;;;;;22.63;11.60;;;;;;;;;;3580693;32;20112;-89
2020/12/04 01:28:35;;;;;;;22.30;11.63;;;;;;;;;;3579460;32;20111;-90
2020/12/04 01:31:01;;;;;;;24.93;13.03;;;;;;;;;;3578807;32;20088;-89
2020/12/04 01:33:27;;;;;;;20.43;11.63;;;;;;;;;;3578185;32;20108;-92
2020/12/04 01:35:53;;;;;;;24.63;12.90;;;;;;;;;;3568662;40;20081;-91
2020/12/04 01:38:20;;;;;;;22.63;12.10;;;;;;;;;;3567960;32;20127;-91
2020/12/04 01:40:46;;;;;;;24.70;11.77;;;;;;;;;;3575988;32;20144;-90
2020/12/04 01:43:12;;;;;;;22.53;13.20;;;;;;;;;;3572106;32;20092;-89
2020/12/04 01:45:38;;;;;;;22.07;12.23;;;;;;;;;;3574960;40;20809;-91
2020/12/04 01:48:05;;;;;;;22.87;12.80;;;;;;;;;;3559285;33;20084;-90
2020/12/04 01:50:31;;;;;;;22.67;12.53;;;;;;;;;;3559353;40;20089;-90
2020/12/04 01:52:58;;;;;;;24.80;12.37;;;;;;;;;;3557987;40;20084;-91
2020/12/04 01:55:24;;;;;;;23.67;13.67;;;;;;;;;;3568406;32;20107;-90
2020/12/04 01:57:52;;;;;;;22.47;11.83;;;;;;;;;;3567647;40;20088;-90
2020/12/04 02:00:19;;;;;;;24.40;12.87;;;;;;;;;;3574519;32;20076;-90
2020/12/04 02:02:46;;;;;;;26.43;14.57;;;;;;;;;;3567839;40;20092;-91
2020/12/04 02:05:12;;;;;;;27.07;14.43;;;;;;;;;;3567869;40;20130;-90
2020/12/04 02:07:41;;;;;;;25.27;13.90;;;;;;;;;;3568315;32;20100;-91
2020/12/04 02:10:11;;;;;;;24.27;13.57;;;;;;;;;;3579219;32;20084;-90
2020/12/04 02:12:38;;;;;;;23.87;13.03;;;;;;;;;;3569280;40;20080;-91
2020/12/04 02:15:04;;;;;;;24.87;13.23;;;;;;;;;;3570304;32;20100;-90
2020/12/04 02:17:34;;;;;;;25.27;13.87;;;;;;;;;;3568106;32;20101;-89
2020/12/04 02:20:00;;;;;;;26.83;13.30;;;;;;;;;;3567119;40;20122;-90
2020/12/04 02:22:36;;;;;;;24.20;13.00;;;;;;;;;;3568241;32;20092;-90
2020/12/04 02:25:03;;;;;;;25.03;13.70;;;;;;;;;;3567595;40;20132;-90
2020/12/04 02:27:30;;;;;;;23.43;13.37;;;;;;;;;;3567585;40;20080;-91
2020/12/04 02:29:56;;;;;;;23.63;12.70;;;;;;;;;;3558810;40;20131;-91
2020/12/04 02:32:22;;;;;;;25.43;14.40;;;;;;;;;;3558824;40;20072;-90
2020/12/04 02:34:48;;;;;;;24.93;14.30;;;;;;;;;;3567633;40;20073;-90
2020/12/04 02:37:14;;;;;;;24.10;14.27;;;;;;;;;;3558871;40;20083;-90
2020/12/04 02:39:40;;;;;;;24.53;13.87;;;;;;;;;;3567004;40;20115;-89
2020/12/04 02:42:06;;;;;;;23.17;13.13;;;;;;;;;;3567483;40;20092;-89
2020/12/04 02:44:32;;;;;;;23.90;12.53;;;;;;;;;;3573595;40;20084;-90
2020/12/04 02:46:58;;;;;;;25.13;12.83;;;;;;;;;;3558781;40;20298;-90
2020/12/04 02:49:24;;;;;;;23.83;13.27;;;;;;;;;;3558408;40;20156;-90
2020/12/04 02:51:51;;;;;;;23.00;12.40;;;;;;;;;;3557524;40;20092;-90
2020/12/04 02:54:18;;;;;;;24.87;12.73;;;;;;;;;;3558929;32;20085;-88
2020/12/04 02:56:44;;;;;;;25.03;13.77;;;;;;;;;;3567433;40;20172;-90
2020/12/04 02:59:11;;;;;;;27.73;13.73;;;;;;;;;;3567303;40;20303;-90
2020/12/04 03:01:37;;;;;;;25.60;14.23;;;;;;;;;;3571436;32;20127;-89
2020/12/04 03:04:03;;;;;;;26.77;14.63;;;;;;;;;;3567012;40;20139;-90
2020/12/04 03:06:29;;;;;;;26.17;13.73;;;;;;;;;;3568621;32;20159;-90
2020/12/04 03:08:56;;;;;;;26.83;14.60;;;;;;;;;;3568300;32;20092;-89
2020/12/04 03:11:23;;;;;;;25.97;13.77;;;;;;;;;;3569813;32;20088;-91
2020/12/04 03:13:49;;;;;;;29.00;14.70;;;;;;;;;;3568690;40;20166;-88
2020/12/04 03:16:15;;;;;;;25.47;14.40;;;;;;;;;;3568636;40;20084;-90
2020/12/04 03:18:41;;;;;;;25.30;14.17;;;;;;;;;;3576914;40;20097;-91
2020/12/04 03:21:07;;;;;;;25.90;14.43;;;;;;;;;;3568395;40;20095;-90
2020/12/04 03:23:33;;;;;;;25.57;13.40;;;;;;;;;;3572595;32;20120;-91
2020/12/04 03:26:00;;;;;;;25.37;14.40;;;;;;;;;;3568496;32;20131;-90
2020/12/04 03:28:26;;;;;;;24.60;13.40;;;;;;;;;;3569591;32;20092;-89
2020/12/04 03:30:52;;;;;;;24.63;13.60;;;;;;;;;;3567262;40;20080;-87
2020/12/04 03:33:18;;;;;;;25.93;13.80;;;;;;;;;;3571077;32;20084;-89
2020/12/04 03:35:44;;;;;;;24.67;13.17;;;;;;;;;;3572859;32;20714;-90
2020/12/04 03:38:10;;;;;;;24.07;12.87;;;;;;;;;;3580287;32;20100;-90
2020/12/04 03:40:36;;;;;;;25.07;12.57;;;;;;;;;;3580677;32;20159;-90
2020/12/04 03:43:02;;;;;;;22.73;13.20;;;;;;;;;;3575519;40;20138;-89
2020/12/04 03:45:28;;;;;;;26.50;14.00;;;;;;;;;;3571093;32;20116;-90
2020/12/04 03:47:54;;;;;;;25.53;13.83;;;;;;;;;;3571476;32;20088;-89
2020/12/04 03:50:20;;;;;;;27.53;14.60;;;;;;;;;;3571244;32;20104;-90
2020/12/04 03:52:47;;;;;;;24.03;13.07;;;;;;;;;;3574764;32;20080;-89
2020/12/04 03:55:13;;;;;;;24.27;13.07;;;;;;;;;;3560759;32;20109;-88
2020/12/04 03:57:39;;;;;;;24.00;13.23;;;;;;;;;;3560374;40;20100;-89
2020/12/04 04:00:07;;;;;;;27.07;14.30;;;;;;;;;;3561257;32;20106;-90
2020/12/04 04:02:33;;;;;;;28.20;14.43;;;;;;;;;;3559876;40;20095;-90
2020/12/04 04:04:59;;;;;;;26.27;13.80;;;;;;;;;;3569013;32;20132;-91
2020/12/04 04:07:25;;;;;;;25.30;13.73;;;;;;;;;;3569174;32;20084;-90
2020/12/04 04:09:51;;;;;;;24.00;13.40;;;;;;;;;;3575011;40;20137;-89
2020/12/04 04:12:17;;;;;;;22.63;13.50;;;;;;;;;;3579844;32;20080;-90
2020/12/04 04:14:43;;;;;;;26.00;13.63;;;;;;;;;;3578181;40;20133;-91
2020/12/04 04:17:09;;;;;;;24.43;13.63;;;;;;;;;;3578401;40;20095;-90
2020/12/04 04:19:35;;;;;;;24.07;13.00;;;;;;;;;;3579201;32;20080;-90
2020/12/04 04:22:01;;;;;;;23.43;12.73;;;;;;;;;;3578361;40;20095;-91
2020/12/04 04:24:27;;;;;;;22.47;13.07;;;;;;;;;;3578252;40;20096;-89
2020/12/04 04:26:53;;;;;;;23.00;12.73;;;;;;;;;;3571361;40;20107;-90
2020/12/04 04:29:19;;;;;;;22.80;13.30;;;;;;;;;;3568345;40;20092;-89
2020/12/04 04:31:45;;;;;;;21.57;12.97;;;;;;;;;;3568351;40;20092;-91
2020/12/04 04:34:11;;;;;;;24.70;13.67;;;;;;;;;;3568742;40;20091;-91
2020/12/04 04:36:37;;;;;;;25.50;13.27;;;;;;;;;;3568375;40;20084;-90
2020/12/04 04:39:03;;;;;;;22.30;12.47;;;;;;;;;;3568142;40;20128;-90
2020/12/04 04:41:29;;;;;;;23.47;12.30;;;;;;;;;;3568406;40;20100;-91
2020/12/04 04:43:55;;;;;;;21.37;11.80;;;;;;;;;;3572237;40;20081;-90
2020/12/04 04:46:21;;;;;;;24.50;13.57;;;;;;;;;;3564384;32;21000;-91
2020/12/04 04:48:54;;;;;;;21.60;12.53;;;;;;;;;;3559568;40;20080;-90
2020/12/04 04:51:25;;;;;;;21.92;12.75;;;;;;;;;;3558894;32;21437;-90
2020/12/04 04:53:52;;;;;;;19.77;12.07;;;;;;;;;;3576455;40;20097;-90
2020/12/04 04:56:18;;;;;;;21.33;11.77;;;;;;;;;;3560068;40;20099;-91
2020/12/04 04:58:44;;;;;;;21.07;11.63;;;;;;;;;;3561602;32;20092;-90
2020/12/04 05:01:10;;;;;;;21.37;11.60;;;;;;;;;;3564330;32;20087;-91
2020/12/04 05:03:36;;;;;;;22.87;12.73;;;;;;;;;;3578068;40;20103;-90
2020/12/04 05:06:02;;;;;;;21.63;11.97;;;;;;;;;;3580175;32;20124;-89
2020/12/04 05:08:28;;;;;;;22.50;12.63;;;;;;;;;;3579927;32;20088;-90
2020/12/04 05:11:07;;;;;;;22.27;12.40;;;;;;;;;;3561096;40;20093;-89
2020/12/04 05:13:36;;;;;;;21.47;11.97;;;;;;;;;;3568276;40;20084;-89
2020/12/04 05:16:02;;;;;;;22.30;12.17;;;;;;;;;;3572859;32;20136;-90
2020/12/04 05:18:30;;;;;;;19.43;11.40;;;;;;;;;;3568233;40;20088;-91
2020/12/04 05:20:56;;;;;;;21.20;11.63;;;;;;;;;;3568170;40;20077;-90
2020/12/04 05:23:23;;;;;;;19.33;11.57;;;;;;;;;;3568144;40;20076;-90
2020/12/04 05:25:53;;;;;;;18.30;10.67;;;;;;;;;;3568105;40;20143;-89
2020/12/04 05:28:23;;;;;;;19.37;10.77;;;;;;;;;;3574837;40;20088;-91
2020/12/04 05:30:51;;;;;;;20.23;9.70;;;;;;;;;;3578035;40;20084;-89
2020/12/04 05:33:17;;;;;;;19.20;11.20;;;;;;;;;;3569778;40;20095;-91
2020/12/04 05:35:50;;;;;;;18.60;10.63;;;;;;;;;;3570102;32;20100;-90
2020/12/04 05:38:17;;;;;;;19.13;10.33;;;;;;;;;;3573817;32;20152;-90
2020/12/04 05:40:44;;;;;;;21.37;11.10;;;;;;;;;;3568205;40;20088;-90
2020/12/04 05:43:10;;;;;;;18.33;10.63;;;;;;;;;;3570769;40;20080;-90
2020/12/04 05:45:37;;;;;;;20.70;11.20;;;;;;;;;;3569393;40;20091;-90
2020/12/04 05:48:11;;;;;;;20.97;11.93;;;;;;;;;;3613128;34;20078;-90
2020/12/04 05:50:38;;;;;;;20.47;11.07;;;;;;;;;;3577447;40;20147;-91
2020/12/04 06:00:50;;;;;;;21.10;10.87;;;;;;;;;;3592713;39;20084;-92
2020/12/04 06:03:16;;;;;;;19.63;10.50;;;;;;;;;;3577672;40;20092;-91
2020/12/04 06:05:42;;;;;;;22.17;11.47;;;;;;;;;;3577283;40;20151;-90
2020/12/04 06:08:08;;;;;;;20.67;11.73;;;;;;;;;;3585394;39;20837;-90
2020/12/04 06:10:35;;;;;;;21.77;12.03;;;;;;;;;;3583225;32;20095;-89
2020/12/04 06:13:01;;;;;;;22.03;11.87;;;;;;;;;;3586009;39;20111;-89
2020/12/04 06:15:29;;;;;;;21.00;11.17;;;;;;;;;;3587241;39;20119;-92
2020/12/04 06:18:04;;;;;;;21.27;11.97;;;;;;;;;;3592576;32;20174;-90
2020/12/04 06:20:39;;;;;;;21.13;10.87;;;;;;;;;;3580204;32;20826;-91
2020/12/04 06:23:07;;;;;;;20.40;10.97;;;;;;;;;;3591541;32;20098;-89
2020/12/04 06:25:52;;;;;;;19.77;10.77;;;;;;;;;;3583370;39;20111;-90
2020/12/04 06:28:19;;;;;;;20.47;11.63;;;;;;;;;;3591439;32;20095;-92
2020/12/04 06:31:04;;;;;;;21.73;11.53;;;;;;;;;;3585660;32;20110;-89
2020/12/04 06:33:35;;;;;;;19.37;10.67;;;;;;;;;;3587009;39;20099;-90
2020/12/04 06:36:01;;;;;;;20.00;11.70;;;;;;;;;;3579275;39;20106;-90
2020/12/04 06:38:34;;;;;;;20.50;11.20;;;;;;;;;;3576997;40;20076;-89
2020/12/04 06:43:35;;;;;;;23.50;11.47;;;;;;;;;;3624539;34;20167;-91
2020/12/04 06:51:05;;;;;;;24.73;12.57;;;;;;;;;;3857340;34;20178;-90
2020/12/04 07:45:25;;;;;;;24.53;12.63;;;;;;;;;;2836821;34;20127;-94
2020/12/04 08:32:07;;;;;;;23.50;13.40;;;;;;;;;;2808627;34;20103;-88
2020/12/04 14:50:06;;;;;;;16.30;8.93;;;;;;;;;;3597556;39;20103;-86
2020/12/04 14:52:33;;;;;;;19.63;9.47;;;;;;;;;;3596471;39;20103;-86
2020/12/04 14:54:59;;;;;;;19.00;9.30;;;;;;;;;;3596614;39;20115;-85
2020/12/04 14:57:26;;;;;;;17.47;9.07;;;;;;;;;;3587733;32;20750;-87
2020/12/04 14:59:54;;;;;;;25.47;10.53;;;;;;;;;;3588834;32;20769;-86
2020/12/04 15:02:26;;;;;;;16.27;8.77;;;;;;;;;;3588029;32;20122;-87
2020/12/04 15:04:52;;;;;;;17.63;8.18;;;;;;;;;;3591191;32;20220;-87
2020/12/04 15:07:19;;;;;;;16.00;8.50;;;;;;;;;;3587021;39;20807;-88
2020/12/04 15:09:45;;;;;;;20.63;9.03;;;;;;;;;;3586873;39;20099;-88
2020/12/04 15:12:11;;;;;;;16.63;8.87;;;;;;;;;;3587492;32;20914;-88
2020/12/04 15:14:37;;;;;;;24.83;9.67;;;;;;;;;;3586927;39;20102;-88
2020/12/04 15:17:04;;;;;;;17.53;9.40;;;;;;;;;;3587966;32;20108;-87
2020/12/04 15:19:30;;;;;;;19.90;9.80;;;;;;;;;;3587280;39;20096;-87
2020/12/04 15:21:57;;;;;;;19.33;9.57;;;;;;;;;;3589403;32;20179;-88
2020/12/04 15:24:23;;;;;;;19.43;9.67;;;;;;;;;;3586947;39;20762;-88
2020/12/04 15:26:57;;;;;;;19.50;9.37;;;;;;;;;;3587742;39;20119;-88
2020/12/04 15:29:24;;;;;;;19.33;9.23;;;;;;;;;;3588656;39;20103;-87
2020/12/04 15:31:50;;;;;;;31.40;9.67;;;;;;;;;;3590260;32;20130;-88
2020/12/04 15:34:16;;;;;;;20.67;8.77;;;;;;;;;;3589478;39;20092;-88
2020/12/04 15:36:42;;;;;;;21.03;9.60;;;;;;;;;;3589340;39;20103;-87
2020/12/04 15:39:25;;;;;;;18.20;9.13;;;;;;;;;;3589448;39;20106;-88
2020/12/04 15:42:03;;;;;;;21.10;9.27;;;;;;;;;;3593124;32;20121;-87
2020/12/04 15:44:30;;;;;;;21.17;9.73;;;;;;;;;;3589214;39;20115;-88
2020/12/04 15:46:56;;;;;;;18.67;9.40;;;;;;;;;;3589262;39;20095;-86
2020/12/04 15:49:23;;;;;;;15.30;8.83;;;;;;;;;;3589608;39;20092;-88
2020/12/04 15:52:09;;;;;;;20.20;9.27;;;;;;;;;;3588763;39;20119;-88
2020/12/04 15:54:35;;;;;;;19.00;9.47;;;;;;;;;;3597786;32;20939;-88
2020/12/04 15:57:02;;;;;;;21.10;9.77;;;;;;;;;;3588874;39;20163;-88
2020/12/04 15:59:28;;;;;;;21.07;9.60;;;;;;;;;;3589949;32;20099;-87
2020/12/04 16:01:55;;;;;;;17.67;9.57;;;;;;;;;;3594402;32;20825;-89
2020/12/04 16:04:22;;;;;;;21.87;10.80;;;;;;;;;;3596281;32;20094;-88
2020/12/04 16:06:48;;;;;;;23.43;10.83;;;;;;;;;;3588961;39;20099;-88
2020/12/04 16:09:14;;;;;;;29.47;11.63;;;;;;;;;;3588887;39;20138;-87
2020/12/04 16:11:44;;;;;;;19.80;11.77;;;;;;;;;;3588537;39;20745;-87
2020/12/04 16:14:10;;;;;;;19.90;11.47;;;;;;;;;;3589231;32;20089;-87
2020/12/04 16:16:36;;;;;;;22.63;10.80;;;;;;;;;;3589070;39;20110;-87
2020/12/04 16:19:03;;;;;;;20.03;10.53;;;;;;;;;;3589288;39;20171;-88
2020/12/04 16:21:29;;;;;;;18.50;9.80;;;;;;;;;;3589445;32;20126;-86
2020/12/04 16:23:55;;;;;;;19.87;10.07;;;;;;;;;;3588229;39;20099;-88
2020/12/04 16:26:21;;;;;;;19.20;10.50;;;;;;;;;;3589110;32;20087;-88
2020/12/04 16:28:47;;;;;;;18.87;9.30;;;;;;;;;;3588953;39;20104;-87
2020/12/04 16:31:17;;;;;;;17.60;9.97;;;;;;;;;;3588735;39;20090;-88
2020/12/04 16:33:43;;;;;;;21.47;10.27;;;;;;;;;;3588800;39;20100;-88
2020/12/04 16:36:09;;;;;;;20.60;10.13;;;;;;;;;;3588773;39;20134;-87
2020/12/04 16:38:35;;;;;;;24.47;10.20;;;;;;;;;;3592430;32;20084;-87
2020/12/04 16:41:04;;;;;;;19.10;10.17;;;;;;;;;;3588633;39;20678;-88
2020/12/04 16:43:31;;;;;;;22.10;11.17;;;;;;;;;;3588981;39;20764;-87
2020/12/04 16:45:57;;;;;;;18.77;10.90;;;;;;;;;;3594367;32;20092;-87
2020/12/04 16:48:24;;;;;;;24.00;10.73;;;;;;;;;;3588802;39;20761;-88
2020/12/04 16:50:50;;;;;;;20.30;11.43;;;;;;;;;;3588796;32;20091;-88
2020/12/04 16:53:16;;;;;;;24.00;11.97;;;;;;;;;;3588580;39;20088;-88
2020/12/04 16:55:42;;;;;;;18.50;11.53;;;;;;;;;;3588513;39;20080;-87
2020/12/04 16:58:08;;;;;;;21.37;11.03;;;;;;;;;;3588498;39;20900;-87
2020/12/04 17:00:34;;;;;;;23.83;11.17;;;;;;;;;;3588501;39;20107;-87
2020/12/04 17:03:00;;;;;;;29.03;11.50;;;;;;;;;;3589193;32;20088;-86
2020/12/04 17:05:26;;;;;;;20.67;10.77;;;;;;;;;;3588536;39;20094;-87
2020/12/04 17:07:52;;;;;;;24.13;10.77;;;;;;;;;;3589874;32;20102;-86
2020/12/04 17:10:18;;;;;;;19.63;10.93;;;;;;;;;;3589119;32;20104;-87
2020/12/04 17:12:47;;;;;;;20.67;11.00;;;;;;;;;;3587228;39;20092;-86
2020/12/04 17:15:13;;;;;;;23.67;12.17;;;;;;;;;;3589405;32;20083;-86
2020/12/04 17:17:39;;;;;;;26.70;11.53;;;;;;;;;;3588671;39;20786;-86
2020/12/04 17:20:05;;;;;;;20.57;10.13;;;;;;;;;;3588112;39;20138;-88
2020/12/04 17:22:31;;;;;;;18.67;10.83;;;;;;;;;;3588302;32;20096;-87
2020/12/04 17:24:57;;;;;;;25.20;11.53;;;;;;;;;;3588256;39;20087;-87
2020/12/04 17:27:23;;;;;;;23.77;10.83;;;;;;;;;;3588545;39;20088;-87
2020/12/04 17:29:51;;;;;;;20.70;11.87;;;;;;;;;;3588337;39;20095;-88
2020/12/04 17:32:17;;;;;;;20.40;11.50;;;;;;;;;;3590720;32;20889;-87
2020/12/04 17:34:43;;;;;;;20.33;11.60;;;;;;;;;;3580849;32;20088;-87
2020/12/04 17:37:10;;;;;;;22.23;12.60;;;;;;;;;;3588434;39;20080;-86
2020/12/04 17:39:36;;;;;;;23.73;12.20;;;;;;;;;;3588136;39;20123;-87
2020/12/04 17:42:02;;;;;;;24.17;12.60;;;;;;;;;;3593575;32;20064;-87
2020/12/04 17:44:28;;;;;;;22.30;12.40;;;;;;;;;;3593642;32;20088;-87
2020/12/04 17:46:55;;;;;;;27.93;13.03;;;;;;;;;;3588438;39;20122;-87
2020/12/04 17:49:23;;;;;;;26.83;14.03;;;;;;;;;;3588291;39;20080;-87
2020/12/04 17:51:49;;;;;;;24.43;13.80;;;;;;;;;;3587943;39;20104;-87
2020/12/04 17:54:16;;;;;;;30.53;13.20;;;;;;;;;;3587912;39;20092;-87
2020/12/04 17:56:42;;;;;;;24.97;14.00;;;;;;;;;;3595098;32;20088;-87
2020/12/04 17:59:08;;;;;;;24.60;13.40;;;;;;;;;;3588339;39;20087;-88
2020/12/04 18:01:34;;;;;;;22.83;12.03;;;;;;;;;;3595526;32;20088;-87
2020/12/04 18:04:04;;;;;;;27.53;14.20;;;;;;;;;;3588030;39;20855;-88
2020/12/04 18:06:30;;;;;;;21.53;13.20;;;;;;;;;;3589377;32;20099;-86
2020/12/04 18:08:56;;;;;;;24.97;12.70;;;;;;;;;;3588166;32;20094;-88
2020/12/04 18:11:23;;;;;;;22.63;11.57;;;;;;;;;;3587548;39;20716;-88
2020/12/04 18:13:49;;;;;;;20.73;11.13;;;;;;;;;;3586892;39;20123;-88
2020/12/04 18:16:15;;;;;;;26.93;12.77;;;;;;;;;;3597150;32;20169;-88
2020/12/04 18:18:42;;;;;;;22.67;11.13;;;;;;;;;;3594456;39;20108;-88
2020/12/04 18:21:08;;;;;;;25.33;11.50;;;;;;;;;;3595475;39;20732;-88
2020/12/04 18:23:34;;;;;;;22.47;11.47;;;;;;;;;;3595644;39;20091;-88
2020/12/04 18:26:00;;;;;;;26.23;12.07;;;;;;;;;;3596405;32;20106;-88
2020/12/04 18:28:26;;;;;;;22.93;11.97;;;;;;;;;;3589676;32;20079;-88
2020/12/04 18:30:52;;;;;;;25.43;12.23;;;;;;;;;;3597780;32;20760;-88
2020/12/04 18:33:18;;;;;;;19.90;11.20;;;;;;;;;;3597853;32;20092;-88
2020/12/04 18:35:45;;;;;;;19.47;10.70;;;;;;;;;;3597757;32;20100;-88
2020/12/04 18:38:11;;;;;;;20.70;12.10;;;;;;;;;;3595388;39;20124;-88
2020/12/04 18:40:37;;;;;;;28.63;14.90;;;;;;;;;;3596643;32;20096;-87
2020/12/04 18:43:03;;;;;;;37.63;18.87;;;;;;;;;;3595986;32;20083;-87
2020/12/04 18:45:29;;;;;;;32.00;13.77;;;;;;;;;;3587728;32;20107;-88
2020/12/04 18:47:55;;;;;;;24.30;13.80;;;;;;;;;;3596018;32;20855;-88
2020/12/04 18:50:21;;;;;;;27.27;12.83;;;;;;;;;;3595922;32;20095;-88
2020/12/04 18:52:47;;;;;;;32.53;17.93;;;;;;;;;;3596138;32;20104;-88
2020/12/04 18:55:13;;;;;;;25.10;14.10;;;;;;;;;;3596280;32;20083;-88
2020/12/04 18:57:41;;;;;;;22.13;12.33;;;;;;;;;;3597620;32;22838;-88
2020/12/04 19:00:07;;;;;;;25.73;13.50;;;;;;;;;;3597426;39;20094;-87
2020/12/04 19:02:40;;;;;;;27.83;13.80;;;;;;;;;;3599652;32;20091;-88
2020/12/04 19:05:07;;;;;;;31.47;14.17;;;;;;;;;;3608309;32;20107;-87
2020/12/04 19:07:34;;;;;;;25.50;13.33;;;;;;;;;;3602359;32;20102;-88
2020/12/04 19:10:00;;;;;;;26.07;14.77;;;;;;;;;;3608766;32;20074;-88
2020/12/04 19:12:26;;;;;;;29.23;15.20;;;;;;;;;;3604789;32;20099;-89
2020/12/04 19:14:53;;;;;;;27.27;14.40;;;;;;;;;;3598347;39;20744;-89
2020/12/04 19:17:19;;;;;;;39.23;19.30;;;;;;;;;;3597123;32;20126;-88
2020/12/04 19:19:45;;;;;;;38.83;21.97;;;;;;;;;;3602521;32;20096;-88
2020/12/04 19:22:11;;;;;;;37.83;22.00;;;;;;;;;;3598515;39;20107;-87
2020/12/04 19:24:38;;;;;;;45.63;20.63;;;;;;;;;;3598559;39;20084;-88
2020/12/04 19:27:04;;;;;;;37.40;19.63;;;;;;;;;;3601773;32;20095;-89
2020/12/04 19:29:30;;;;;;;31.80;16.37;;;;;;;;;;3598602;39;20792;-88
2020/12/04 19:31:57;;;;;;;30.50;15.93;;;;;;;;;;3602410;32;20099;-87
2020/12/04 19:34:23;;;;;;;26.00;13.87;;;;;;;;;;3591142;32;20190;-88
2020/12/04 19:36:50;;;;;;;24.13;14.20;;;;;;;;;;3599424;32;20768;-88
2020/12/04 19:39:16;;;;;;;26.73;15.27;;;;;;;;;;3590581;39;20095;-88
2020/12/04 19:41:43;;;;;;;25.77;14.13;;;;;;;;;;3590683;32;20080;-88
2020/12/04 19:44:10;;;;;;;28.13;16.10;;;;;;;;;;3601371;32;20107;-88
2020/12/04 19:46:37;;;;;;;28.13;16.93;;;;;;;;;;3598589;39;20851;-87
2020/12/04 19:49:06;;;;;;;35.60;18.13;;;;;;;;;;3590707;39;20080;-87
2020/12/04 19:51:34;;;;;;;24.83;14.30;;;;;;;;;;3590105;39;20103;-88
2020/12/04 19:54:00;;;;;;;33.17;16.93;;;;;;;;;;3604793;32;20087;-89
2020/12/04 19:56:26;;;;;;;36.53;18.63;;;;;;;;;;3604550;32;20087;-88
2020/12/04 19:58:54;;;;;;;34.13;16.30;;;;;;;;;;3593142;32;20743;-89
2020/12/04 20:01:20;;;;;;;34.17;16.73;;;;;;;;;;3604532;32;20079;-87
2020/12/04 20:03:48;;;;;;;26.20;15.13;;;;;;;;;;3596031;32;20087;-88
2020/12/04 20:06:17;;;;;;;32.90;14.27;;;;;;;;;;3590168;39;20099;-88
2020/12/04 20:08:42;;;;;;;31.13;14.67;;;;;;;;;;3592913;32;20157;-89
2020/12/04 20:11:09;;;;;;;26.37;14.80;;;;;;;;;;3590057;39;20107;-88
2020/12/04 20:13:42;;;;;;;26.37;15.17;;;;;;;;;;3589691;32;20103;-87
2020/12/04 20:16:09;;;;;;;31.50;14.60;;;;;;;;;;3597280;32;20842;-87
2020/12/04 20:18:36;;;;;;;27.67;13.87;;;;;;;;;;3592114;32;20103;-87
2020/12/04 20:21:02;;;;;;;28.17;15.33;;;;;;;;;;3589966;32;20162;-89
2020/12/04 20:23:28;;;;;;;26.67;13.77;;;;;;;;;;3590646;32;20110;-88
2020/12/04 20:25:54;;;;;;;27.33;13.93;;;;;;;;;;3588542;32;20103;-88
2020/12/04 20:28:20;;;;;;;29.97;14.33;;;;;;;;;;3590244;32;20095;-87
2020/12/04 20:30:46;;;;;;;25.80;14.27;;;;;;;;;;3588255;39;20242;-87
2020/12/04 20:33:12;;;;;;;30.57;15.30;;;;;;;;;;3588110;39;20103;-87
2020/12/04 20:35:40;;;;;;;29.73;14.73;;;;;;;;;;3589298;32;20099;-87
2020/12/04 20:38:06;;;;;;;25.63;14.43;;;;;;;;;;3596375;39;20084;-88
2020/12/04 20:40:32;;;;;;;28.50;13.87;;;;;;;;;;3588659;32;20137;-87
2020/12/04 20:42:58;;;;;;;26.60;13.10;;;;;;;;;;3588529;39;20096;-86
2020/12/04 20:45:26;;;;;;;24.10;12.43;;;;;;;;;;3588492;39;20150;-88
2020/12/04 20:47:52;;;;;;;25.60;13.43;;;;;;;;;;3587973;39;20090;-88
2020/12/04 20:50:18;;;;;;;27.97;13.77;;;;;;;;;;3588160;39;20104;-87
2020/12/04 20:52:44;;;;;;;29.03;14.43;;;;;;;;;;3596536;32;20990;-87
2020/12/04 20:55:10;;;;;;;25.37;13.47;;;;;;;;;;3592184;32;20099;-88
2020/12/04 20:57:36;;;;;;;30.30;14.80;;;;;;;;;;3589385;32;20087;-89
2020/12/04 21:00:06;;;;;;;26.13;14.37;;;;;;;;;;3588109;39;20812;-88
2020/12/04 21:02:33;;;;;;;25.27;15.00;;;;;;;;;;3595630;32;20798;-87
2020/12/04 21:04:59;;;;;;;27.13;15.13;;;;;;;;;;3589310;32;20119;-87
2020/12/04 21:07:25;;;;;;;31.27;16.27;;;;;;;;;;3587932;39;20099;-87
2020/12/04 21:09:51;;;;;;;34.60;19.73;;;;;;;;;;3587801;39;20104;-85
2020/12/04 21:12:17;;;;;;;39.07;18.83;;;;;;;;;;3587813;39;20103;-87
2020/12/04 21:14:43;;;;;;;32.33;18.00;;;;;;;;;;3589853;32;20102;-87
2020/12/04 21:17:09;;;;;;;36.03;19.10;;;;;;;;;;3590196;32;20103;-87
2020/12/04 21:19:35;;;;;;;33.07;17.90;;;;;;;;;;3587524;39;20087;-86
2020/12/04 21:22:04;;;;;;;39.97;18.93;;;;;;;;;;3587794;39;20087;-88
2020/12/04 21:24:30;;;;;;;35.87;18.60;;;;;;;;;;3595565;32;20080;-87
2020/12/04 21:26:56;;;;;;;36.33;18.67;;;;;;;;;;3587238;39;20144;-87
2020/12/04 21:29:22;;;;;;;34.07;17.50;;;;;;;;;;3596530;32;20108;-88
2020/12/04 21:31:48;;;;;;;40.43;20.30;;;;;;;;;;3595652;32;20086;-86
2020/12/04 21:34:15;;;;;;;39.20;20.13;;;;;;;;;;3587980;39;20075;-87
2020/12/04 21:36:41;;;;;;;36.27;19.80;;;;;;;;;;3588050;32;20092;-87
2020/12/04 21:39:08;;;;;;;33.67;18.93;;;;;;;;;;3587509;39;20084;-89
2020/12/04 21:41:44;;;;;;;43.47;19.47;;;;;;;;;;3590766;32;20107;-88
2020/12/04 21:44:10;;;;;;;41.17;19.77;;;;;;;;;;3592141;32;20134;-89
2020/12/04 21:46:36;;;;;;;35.40;18.80;;;;;;;;;;3587524;39;20103;-88
2020/12/04 21:49:03;;;;;;;39.20;20.43;;;;;;;;;;3590660;32;20088;-87
2020/12/04 21:51:29;;;;;;;36.33;21.33;;;;;;;;;;3591343;32;20087;-87
2020/12/04 21:53:55;;;;;;;39.23;20.30;;;;;;;;;;3587316;39;20075;-87
2020/12/04 21:56:21;;;;;;;38.23;19.80;;;;;;;;;;3587447;39;20080;-87
2020/12/04 21:58:54;;;;;;;41.67;20.83;;;;;;;;;;3587689;39;20090;-87
2020/12/04 22:01:20;;;;;;;;;;;;;;;;;;3592434;32;20111;-88
2020/12/04 22:03:46;;;;;;;38.13;19.47;;;;;;;;;;3587285;39;20707;-87
2020/12/04 22:06:12;;;;;;;42.57;20.73;;;;;;;;;;3587154;39;20118;-86
2020/12/04 22:08:39;;;;;;;37.43;20.10;;;;;;;;;;3587080;39;20107;-85
2020/12/04 22:11:05;;;;;;;37.37;19.73;;;;;;;;;;3588059;32;20112;-86
2020/12/04 22:13:31;;;;;;;37.93;19.87;;;;;;;;;;3587082;39;20142;-86
2020/12/04 22:15:59;;;;;;;38.50;19.57;;;;;;;;;;3587129;39;20094;-86
2020/12/04 22:18:25;;;;;;;41.20;19.87;;;;;;;;;;3587209;39;20084;-85
2020/12/04 22:20:51;;;;;;;36.80;19.37;;;;;;;;;;3587000;39;20112;-86
2020/12/04 22:23:17;;;;;;;36.60;19.30;;;;;;;;;;3589037;32;20157;-86